Colonial Beach, VA (22443)

11:03 AM EDT on August 29, 2016 (GMT -0400)
Colonial Beach | | Change Station

Elev 13 ft 38.26 °N, 76.97 °W | Updated 1 second ago

Clear
Clear
84.6 °F
Feels Like 93 °F
N
4.0
Wind Variable Wind from ENE
Gusts 7.0 mph

Today
High -- | Low -- °F
--% Chance of Precip.
Yesterday
High -- | Low -- °F
Precip. -- in
Pressure 30.19 in
Visibility 10.0 miles
Clouds Clear
Heat Index 93 °F
Dew Point 75 °F
Humidity 73%
Rainfall 0.00 in
Snow Depth Not available.
6:35 AM 7:41 PM
Waning Crescent, 8% visible
METAR K2W6 291456Z AUTO 06003KT 10SM CLR 26/18 A3019 RMK AO1
Pressure 30.19 in
Visibility 10.0 miles
Clouds Clear
Heat Index 93 °F
Dew Point 75 °F
Humidity 73%
Rainfall 0.00 in
Snow Depth Not available.
6:35 AM 7:41 PM
Waning Crescent, 8% visible
METAR K2W6 291456Z AUTO 06003KT 10SM CLR 26/18 A3019 RMK AO1

10-Day Weather Forecast

Almanac

Astronomy

Aug. 29, 2016 Rise Set
Actual Time
Civil Twilight
Nautical Twilight
Astronomical Twilight
Moon
Length of Visible Light
Length of Day
Tomorrow will be .
, % of the Moon is Illuminated

Today's Extremes

State Highs State Lows

Community

WunderPhotos

Upload Photos

1,935,841 photos uploaded!

WunderBlog® & News

Nearby

Air Quality

  Air Quality AQ Index Pollutant
Not available.

Snow Depth

Station Depth Elevation

Earthquake Activity

City Distance Mag. Time & Date
Minimum magnitude displayed is 2.5.

Coastal Water Temperatures

Place Temperature

Stations

Nearby Weather Stations

Station Location Temp. Windchill Dew Point Humidity Wind Precip. Elev Updated Type
                   

Watches & Warnings

There are currently no watches in effect.